createdAt,value
2023-01-29T00:00:10.198Z,59.04
2023-01-29T00:02:45.100Z,58.48
2023-01-29T00:05:27.477Z,58.59
2023-01-29T00:07:59.781Z,58.45
2023-01-29T00:10:31.494Z,58.46
2023-01-29T00:13:03.145Z,58.31
2023-01-29T00:15:34.874Z,58.08
2023-01-29T00:18:06.502Z,58.23
2023-01-29T00:20:38.173Z,58.32
2023-01-29T00:23:09.831Z,58.46
2023-01-29T00:25:43.905Z,58.28
2023-01-29T00:28:19.385Z,58.45
2023-01-29T00:30:51.105Z,58.51
2023-01-29T00:33:22.759Z,58.31
2023-01-29T00:35:54.470Z,58.03
2023-01-29T00:38:29.262Z,58.02
2023-01-29T00:41:31.391Z,57.47
2023-01-29T00:44:21.722Z,58.37
2023-01-29T00:46:54.813Z,58.37
2023-01-29T00:49:27.193Z,57.83
2023-01-29T00:52:17.663Z,57.75
2023-01-29T00:54:49.358Z,57.77
2023-01-29T00:57:21.407Z,57.60
2023-01-29T00:59:53.167Z,57.41
2023-01-29T01:02:44.076Z,57.88
2023-01-29T01:05:20.757Z,57.88
2023-01-29T01:07:56.372Z,57.41
2023-01-29T01:10:31.795Z,57.05
2023-01-29T01:13:06.617Z,57.36
2023-01-29T01:15:39.899Z,57.50
2023-01-29T01:18:14.747Z,57.33
2023-01-29T01:20:50.412Z,57.46
2023-01-29T01:23:21.931Z,56.99
2023-01-29T01:25:56.441Z,56.96
2023-01-29T01:28:28.479Z,57.58
2023-01-29T01:31:08.778Z,57.58
2023-01-29T01:33:41.313Z,57.61
2023-01-29T01:36:15.903Z,58.26
2023-01-29T01:38:50.505Z,57.95
2023-01-29T01:41:23.208Z,58.27
2023-01-29T01:43:57.429Z,57.85
2023-01-29T01:46:30.928Z,57.92
2023-01-29T01:49:16.021Z,57.45
2023-01-29T01:51:52.013Z,57.45
2023-01-29T01:54:30.490Z,57.44
2023-01-29T01:57:16.257Z,57.65
2023-01-29T01:59:56.564Z,58.12
2023-01-29T02:02:46.787Z,58.56
2023-01-29T02:05:39.969Z,58.57
2023-01-29T02:08:30.805Z,59.14
2023-01-29T02:11:03.050Z,59.16
2023-01-29T02:13:34.985Z,59.16
2023-01-29T02:16:07.406Z,59.34
2023-01-29T02:18:42.302Z,59.17
2023-01-29T02:21:36.654Z,59.14
2023-01-29T02:24:46.017Z,59.38
2023-01-29T02:27:45.499Z,59.52
2023-01-29T02:30:31.822Z,59.49
2023-01-29T02:33:26.381Z,59.70
2023-01-29T02:36:23.081Z,59.91
2023-01-29T02:39:06.161Z,60.38
2023-01-29T02:41:55.438Z,60.13
2023-01-29T02:44:51.370Z,60.62
2023-01-29T02:47:32.954Z,60.92
2023-01-29T02:50:23.408Z,60.76
2023-01-29T02:53:16.903Z,61.05
2023-01-29T02:56:12.386Z,61.29
2023-01-29T02:59:00.269Z,61.63
2023-01-29T03:01:40.854Z,61.50
2023-01-29T03:04:19.982Z,61.31
2023-01-29T03:06:58.468Z,61.36
2023-01-29T03:09:34.488Z,61.66
2023-01-29T03:12:40.859Z,61.51
2023-01-29T03:15:42.486Z,61.47
2023-01-29T03:18:43.662Z,61.30
2023-01-29T03:21:47.990Z,61.60
2023-01-29T03:24:48.406Z,61.24
2023-01-29T03:27:44.511Z,61.28
2023-01-29T03:30:37.268Z,60.66
2023-01-29T03:33:28.463Z,60.68
2023-01-29T03:36:08.856Z,60.88
2023-01-29T03:38:40.795Z,60.76
2023-01-29T03:41:33.351Z,60.91
2023-01-29T03:45:01.989Z,60.93
2023-01-29T03:47:47.925Z,61.18
2023-01-29T03:50:22.756Z,60.75
2023-01-29T03:53:20.726Z,61.09
2023-01-29T03:56:02.594Z,60.87
2023-01-29T03:58:43.078Z,61.38
2023-01-29T04:01:20.601Z,61.49
2023-01-29T04:03:58.065Z,60.64
2023-01-29T04:06:51.017Z,60.79
2023-01-29T04:09:30.424Z,60.85
2023-01-29T04:12:11.619Z,61.10
2023-01-29T04:14:49.573Z,60.98
2023-01-29T04:17:32.908Z,61.20
2023-01-29T04:20:27.271Z,61.31
2023-01-29T04:22:59.441Z,60.26
2023-01-29T04:25:47.467Z,60.55
2023-01-29T04:28:38.445Z,60.81
2023-01-29T04:31:12.628Z,60.69
2023-01-29T04:33:59.979Z,60.11
2023-01-29T04:36:41.525Z,60.80
2023-01-29T04:39:23.900Z,60.69
2023-01-29T04:42:14.426Z,60.38
2023-01-29T04:44:52.154Z,60.69
2023-01-29T04:47:43.430Z,60.86
2023-01-29T04:50:22.315Z,61.20
2023-01-29T04:53:07.625Z,61.63
2023-01-29T04:56:02.256Z,61.78
2023-01-29T04:58:45.842Z,61.70
2023-01-29T05:01:20.034Z,61.81
2023-01-29T05:03:55.287Z,62.07
2023-01-29T05:06:28.518Z,61.61
2023-01-29T05:09:01.874Z,61.97
2023-01-29T05:11:35.868Z,62.01
2023-01-29T05:14:11.969Z,61.93
2023-01-29T05:16:47.576Z,62.42
2023-01-29T05:19:19.436Z,62.60
2023-01-29T05:21:51.267Z,61.49
2023-01-29T05:24:25.089Z,61.58
2023-01-29T05:27:15.892Z,61.30
2023-01-29T05:29:48.541Z,61.59
2023-01-29T05:32:20.230Z,61.73
2023-01-29T05:34:53.274Z,61.65
2023-01-29T05:37:30.825Z,61.49
2023-01-29T05:40:02.511Z,61.67
2023-01-29T05:42:34.287Z,60.91
2023-01-29T05:45:06.576Z,61.62
2023-01-29T05:47:38.242Z,60.80
2023-01-29T05:50:10.656Z,59.69
2023-01-29T05:52:42.948Z,60.08
2023-01-29T05:55:14.640Z,59.66
2023-01-29T05:57:46.297Z,59.71
2023-01-29T06:00:18.847Z,59.35
2023-01-29T06:02:50.730Z,59.07
2023-01-29T06:05:25.077Z,58.53
2023-01-29T06:08:00.740Z,58.83
2023-01-29T06:10:32.551Z,59.05
2023-01-29T06:13:04.441Z,58.72
2023-01-29T06:15:36.134Z,58.83
2023-01-29T06:18:08.358Z,58.39
2023-01-29T06:20:42.260Z,58.33
2023-01-29T06:23:13.945Z,58.49
2023-01-29T06:25:45.637Z,58.19
2023-01-29T06:28:17.270Z,58.05
2023-01-29T06:30:49.057Z,58.30
2023-01-29T06:33:20.738Z,58.68
2023-01-29T06:36:00.189Z,58.61
2023-01-29T06:38:32.465Z,58.05
2023-01-29T06:41:17.878Z,58.77
2023-01-29T06:43:49.543Z,58.72
2023-01-29T06:46:21.406Z,58.60
2023-01-29T06:48:53.069Z,58.71
2023-01-29T06:51:24.777Z,58.90
2023-01-29T06:53:56.599Z,59.12
2023-01-29T06:56:28.304Z,59.30
2023-01-29T06:59:02.270Z,59.10
2023-01-29T07:01:37.041Z,59.34
2023-01-29T07:04:08.555Z,58.66
2023-01-29T07:06:40.339Z,59.01
2023-01-29T07:09:14.045Z,58.81
2023-01-29T07:11:45.755Z,58.99
2023-01-29T07:14:17.409Z,59.35
2023-01-29T07:16:49.108Z,59.44
2023-01-29T07:19:20.818Z,59.27
2023-01-29T07:21:52.505Z,59.44
2023-01-29T07:24:24.929Z,59.61
2023-01-29T07:26:56.888Z,59.24
2023-01-29T07:29:28.636Z,59.16
2023-01-29T07:32:00.386Z,58.82
2023-01-29T07:34:32.117Z,59.04
2023-01-29T07:37:04.262Z,59.34
2023-01-29T07:39:35.949Z,59.23
2023-01-29T07:42:07.630Z,59.47
2023-01-29T07:44:42.135Z,59.68
2023-01-29T07:47:15.216Z,58.97
2023-01-29T07:49:48.077Z,58.51
2023-01-29T07:52:21.974Z,58.84
2023-01-29T07:54:54.039Z,58.49
2023-01-29T07:57:25.951Z,59.20
2023-01-29T07:59:57.670Z,59.45
2023-01-29T08:02:29.530Z,59.20
2023-01-29T08:05:01.251Z,59.48
2023-01-29T08:07:33.013Z,58.60
2023-01-29T08:10:05.334Z,58.84
2023-01-29T08:12:37.022Z,59.42
2023-01-29T08:15:09.336Z,58.66
2023-01-29T08:17:56.055Z,58.91
2023-01-29T08:20:32.719Z,58.63
2023-01-29T08:23:07.184Z,59.16
2023-01-29T08:25:38.868Z,59.32
2023-01-29T08:28:11.845Z,59.04
2023-01-29T08:30:44.172Z,59.10
2023-01-29T08:33:17.570Z,59.25
2023-01-29T08:35:53.243Z,58.66
2023-01-29T08:38:24.892Z,58.68
2023-01-29T08:40:57.694Z,58.79
2023-01-29T08:43:29.347Z,58.66
2023-01-29T08:46:01.040Z,58.43
2023-01-29T08:48:33.277Z,58.90
2023-01-29T08:51:05.717Z,58.52
2023-01-29T08:53:37.367Z,58.46
2023-01-29T08:56:09.112Z,58.34
2023-01-29T08:58:40.781Z,57.95
2023-01-29T09:01:14.201Z,58.00
2023-01-29T09:03:46.413Z,58.13
2023-01-29T09:06:18.085Z,57.96
2023-01-29T09:08:49.882Z,57.81
2023-01-29T09:11:24.558Z,57.58
2023-01-29T09:13:56.233Z,56.64
2023-01-29T09:16:33.225Z,55.18
2023-01-29T09:19:04.884Z,53.09
2023-01-29T09:21:36.576Z,51.96
2023-01-29T09:24:08.314Z,48.93
2023-01-29T09:26:40.276Z,44.51
2023-01-29T09:29:12.186Z,40.08
2023-01-29T09:31:44.006Z,36.11
2023-01-29T09:34:15.635Z,35.25
2023-01-29T09:36:47.303Z,33.54
2023-01-29T09:39:19.022Z,33.93
2023-01-29T09:42:31.517Z,32.40
2023-01-29T09:45:05.840Z,34.44
2023-01-29T09:47:37.552Z,34.78
2023-01-29T09:50:26.721Z,35.12
2023-01-29T09:53:21.709Z,34.70
2023-01-29T09:56:06.546Z,35.14
2023-01-29T09:58:43.824Z,34.27
2023-01-29T10:01:31.847Z,34.38
2023-01-29T10:04:29.134Z,34.64
2023-01-29T10:07:29.689Z,35.85
2023-01-29T10:10:06.682Z,35.81
2023-01-29T10:13:01.920Z,36.43
2023-01-29T10:15:56.708Z,35.03
2023-01-29T10:19:06.463Z,35.79
2023-01-29T10:22:00.143Z,35.57
2023-01-29T10:24:43.314Z,36.32
2023-01-29T10:27:18.209Z,37.61
2023-01-29T10:29:55.249Z,38.22
2023-01-29T10:32:27.900Z,39.30
2023-01-29T10:35:22.376Z,39.68
2023-01-29T10:37:54.806Z,39.96
2023-01-29T10:40:34.903Z,39.90
2023-01-29T10:43:26.980Z,39.39
2023-01-29T10:46:17.315Z,39.02
2023-01-29T10:49:25.396Z,39.84
2023-01-29T10:52:03.046Z,40.44
2023-01-29T10:54:46.856Z,41.47
2023-01-29T10:57:34.061Z,41.14
2023-01-29T11:00:19.246Z,42.68
2023-01-29T11:02:51.796Z,41.52
2023-01-29T11:05:31.036Z,41.77
2023-01-29T11:08:11.762Z,42.02
2023-01-29T11:11:09.619Z,41.56
2023-01-29T11:14:12.157Z,42.29
2023-01-29T11:16:46.909Z,43.10
2023-01-29T11:19:22.140Z,43.75
2023-01-29T11:21:57.956Z,43.73
2023-01-29T11:24:29.910Z,44.06
2023-01-29T11:27:01.701Z,44.11
2023-01-29T11:29:44.003Z,44.79
2023-01-29T11:32:21.394Z,44.30
2023-01-29T11:34:59.973Z,45.41
2023-01-29T11:37:34.163Z,45.48
2023-01-29T11:40:23.918Z,44.96
2023-01-29T11:42:55.607Z,44.83
2023-01-29T11:45:32.884Z,45.45
2023-01-29T11:48:05.033Z,45.02
2023-01-29T11:50:37.187Z,46.50
2023-01-29T11:53:24.892Z,45.97
2023-01-29T11:55:57.220Z,46.80
2023-01-29T11:58:33.352Z,46.46
2023-01-29T12:01:05.618Z,48.34
2023-01-29T12:03:43.831Z,47.35
2023-01-29T12:06:22.944Z,47.53
2023-01-29T12:09:00.163Z,52.39
2023-01-29T12:11:34.348Z,48.60
2023-01-29T12:14:34.199Z,48.19
2023-01-29T12:17:13.864Z,47.94
2023-01-29T12:19:54.951Z,48.60
2023-01-29T12:22:35.541Z,49.03
2023-01-29T12:25:18.992Z,47.76
2023-01-29T12:28:16.012Z,48.09
2023-01-29T12:31:21.304Z,49.02
2023-01-29T12:34:04.972Z,48.70
2023-01-29T12:36:53.244Z,49.08
2023-01-29T12:39:25.509Z,49.53
2023-01-29T12:42:07.328Z,49.88
2023-01-29T12:44:50.338Z,50.10
2023-01-29T12:47:37.345Z,50.65
2023-01-29T12:50:15.412Z,50.60
2023-01-29T12:53:02.237Z,50.61
2023-01-29T12:55:44.457Z,50.64
2023-01-29T12:58:23.270Z,51.01
2023-01-29T13:00:59.970Z,50.81
2023-01-29T13:03:50.803Z,51.50
2023-01-29T13:06:33.228Z,51.55
2023-01-29T13:09:08.013Z,51.58
2023-01-29T13:11:42.701Z,51.64
2023-01-29T13:14:22.772Z,52.15
2023-01-29T13:17:12.763Z,52.81
2023-01-29T13:19:50.226Z,52.39
2023-01-29T13:22:27.640Z,52.15
2023-01-29T13:25:05.525Z,52.32
2023-01-29T13:27:37.792Z,51.75
2023-01-29T13:30:31.044Z,52.33
2023-01-29T13:33:09.519Z,56.72
2023-01-29T13:35:45.135Z,58.94
2023-01-29T13:38:36.103Z,51.94
2023-01-29T13:41:11.091Z,50.37
2023-01-29T13:43:51.523Z,50.01
2023-01-29T13:46:23.385Z,50.50
2023-01-29T13:48:58.234Z,50.89
2023-01-29T13:51:35.535Z,51.10
2023-01-29T13:54:18.572Z,51.25
2023-01-29T13:56:55.343Z,51.16
2023-01-29T13:59:55.319Z,51.52
2023-01-29T14:02:30.368Z,55.20
2023-01-29T14:05:31.392Z,52.70
2023-01-29T14:08:17.687Z,51.43
2023-01-29T14:11:19.145Z,51.93
2023-01-29T14:13:52.370Z,51.93
2023-01-29T14:16:23.916Z,51.93
2023-01-29T14:19:01.514Z,52.28
2023-01-29T14:21:35.860Z,52.49
2023-01-29T14:24:23.776Z,52.37
2023-01-29T14:26:59.365Z,52.70
2023-01-29T14:29:39.427Z,52.60
2023-01-29T14:32:19.680Z,52.13
2023-01-29T14:34:56.435Z,52.88
2023-01-29T14:37:41.060Z,52.93
2023-01-29T14:40:18.376Z,52.78
2023-01-29T14:43:04.111Z,52.80
2023-01-29T14:45:38.568Z,53.07
2023-01-29T14:48:10.253Z,53.52
2023-01-29T14:50:46.525Z,53.67
2023-01-29T14:53:50.702Z,53.49
2023-01-29T14:56:32.748Z,53.87
2023-01-29T14:59:19.997Z,54.09
2023-01-29T15:01:56.629Z,53.28
2023-01-29T15:04:36.503Z,53.92
2023-01-29T15:07:10.962Z,53.61
2023-01-29T15:09:48.591Z,53.78
2023-01-29T15:12:32.792Z,53.95
2023-01-29T15:15:37.823Z,54.60
2023-01-29T15:18:34.012Z,53.82
2023-01-29T15:21:11.908Z,53.76
2023-01-29T15:23:44.598Z,53.95
2023-01-29T15:26:22.437Z,53.57
2023-01-29T15:29:04.274Z,53.69
2023-01-29T15:31:36.841Z,54.30
2023-01-29T15:34:08.680Z,54.23
2023-01-29T15:36:42.085Z,54.51
2023-01-29T15:39:23.528Z,54.78
2023-01-29T15:42:41.533Z,55.13
2023-01-29T15:45:31.009Z,55.49
2023-01-29T15:48:13.016Z,55.37
2023-01-29T15:50:45.803Z,55.33
2023-01-29T15:53:25.971Z,55.45
2023-01-29T15:56:00.009Z,55.62
2023-01-29T15:58:32.712Z,55.37
2023-01-29T16:01:07.591Z,55.53
2023-01-29T16:03:39.105Z,56.06
2023-01-29T16:06:11.699Z,56.06
2023-01-29T16:08:55.605Z,56.50
2023-01-29T16:11:27.903Z,56.48
2023-01-29T16:14:01.282Z,56.46
2023-01-29T16:16:33.441Z,56.58
2023-01-29T16:19:34.549Z,56.77
2023-01-29T16:22:08.255Z,56.79
2023-01-29T16:24:39.954Z,57.07
2023-01-29T16:27:14.871Z,57.47
2023-01-29T16:29:46.456Z,57.60
2023-01-29T16:32:21.275Z,57.40
2023-01-29T16:34:56.182Z,57.99
2023-01-29T16:37:33.622Z,58.02
2023-01-29T16:40:28.674Z,57.95
2023-01-29T16:43:20.704Z,57.86
2023-01-29T16:46:26.557Z,57.88
2023-01-29T16:48:58.406Z,58.22
2023-01-29T16:51:38.661Z,58.23
2023-01-29T16:54:19.624Z,58.47
2023-01-29T16:56:59.935Z,58.53
2023-01-29T16:59:40.076Z,58.56
2023-01-29T17:02:25.683Z,58.41
2023-01-29T17:05:03.223Z,58.40
2023-01-29T17:07:36.809Z,58.69
2023-01-29T17:10:16.031Z,58.46
2023-01-29T17:12:58.784Z,58.53
2023-01-29T17:15:35.407Z,58.59
2023-01-29T17:18:17.081Z,58.52
2023-01-29T17:20:53.070Z,58.77
2023-01-29T17:23:24.774Z,58.94
2023-01-29T17:25:56.624Z,58.87
2023-01-29T17:28:28.486Z,59.17
2023-01-29T17:31:06.127Z,59.50
2023-01-29T17:33:42.726Z,59.58
2023-01-29T17:36:17.317Z,59.35
2023-01-29T17:38:49.036Z,59.69
2023-01-29T17:41:30.477Z,59.96
2023-01-29T17:44:02.123Z,59.76
2023-01-29T17:46:33.833Z,59.70
2023-01-29T17:49:24.250Z,60.13
2023-01-29T17:51:57.277Z,60.13
2023-01-29T17:54:28.984Z,60.41
2023-01-29T17:57:00.767Z,60.43
2023-01-29T17:59:33.920Z,60.23
2023-01-29T18:02:05.640Z,60.25
2023-01-29T18:04:38.625Z,59.93
2023-01-29T18:07:11.754Z,60.14
2023-01-29T18:09:46.312Z,60.30
2023-01-29T18:12:17.996Z,60.43
2023-01-29T18:14:49.625Z,60.08
2023-01-29T18:17:23.073Z,60.29
2023-01-29T18:19:56.561Z,60.14
2023-01-29T18:22:28.230Z,60.66
2023-01-29T18:25:02.708Z,60.49
2023-01-29T18:27:34.377Z,60.75
2023-01-29T18:30:06.886Z,60.80
2023-01-29T18:32:38.816Z,60.87
2023-01-29T18:35:10.549Z,60.68
2023-01-29T18:37:42.317Z,60.71
2023-01-29T18:40:17.269Z,60.89
2023-01-29T18:42:49.000Z,61.29
2023-01-29T18:45:23.840Z,61.24
2023-01-29T18:47:55.855Z,61.54
2023-01-29T18:50:27.921Z,61.29
2023-01-29T18:53:01.653Z,61.61
2023-01-29T18:55:33.971Z,61.56
2023-01-29T18:58:26.190Z,61.41
2023-01-29T19:00:59.042Z,62.03
2023-01-29T19:03:30.717Z,62.24
2023-01-29T19:06:07.952Z,62.12
2023-01-29T19:08:40.717Z,62.22
2023-01-29T19:11:12.847Z,62.21
2023-01-29T19:13:44.678Z,62.52
2023-01-29T19:16:16.507Z,62.40
2023-01-29T19:18:48.342Z,62.84
2023-01-29T19:21:19.975Z,62.53
2023-01-29T19:23:51.676Z,62.70
2023-01-29T19:26:23.305Z,62.54
2023-01-29T19:28:55.049Z,63.02
2023-01-29T19:31:27.268Z,62.50
2023-01-29T19:33:58.958Z,62.64
2023-01-29T19:36:31.116Z,62.88
2023-01-29T19:39:03.023Z,62.89
2023-01-29T19:41:35.168Z,62.94
2023-01-29T19:44:07.612Z,62.83
2023-01-29T19:46:39.385Z,63.00
2023-01-29T19:49:11.093Z,62.70
2023-01-29T19:51:42.917Z,62.85
2023-01-29T19:54:14.910Z,63.00
2023-01-29T19:56:46.562Z,62.81
2023-01-29T19:59:18.398Z,62.70
2023-01-29T20:01:50.146Z,62.98
2023-01-29T20:04:21.902Z,62.79
2023-01-29T20:06:53.596Z,62.76
2023-01-29T20:09:25.273Z,62.33
2023-01-29T20:11:57.199Z,62.44
2023-01-29T20:14:30.037Z,62.44
2023-01-29T20:17:01.855Z,62.52
2023-01-29T20:19:34.998Z,62.25
2023-01-29T20:22:06.624Z,62.38
2023-01-29T20:24:42.676Z,62.77
2023-01-29T20:27:14.505Z,62.41
2023-01-29T20:29:46.679Z,62.35
2023-01-29T20:32:18.756Z,62.52
2023-01-29T20:34:52.252Z,62.75
2023-01-29T20:37:24.120Z,62.59
2023-01-29T20:39:55.893Z,62.46
2023-01-29T20:42:27.551Z,62.38
2023-01-29T20:44:59.203Z,62.10
2023-01-29T20:47:30.958Z,62.30
2023-01-29T20:50:08.499Z,62.33
2023-01-29T20:52:41.571Z,62.45
2023-01-29T20:55:13.686Z,62.40
2023-01-29T20:57:45.514Z,62.01
2023-01-29T21:00:37.453Z,62.29
2023-01-29T21:03:09.256Z,62.98
2023-01-29T21:05:41.013Z,62.87
2023-01-29T21:08:12.686Z,63.11
2023-01-29T21:10:50.030Z,62.49
2023-01-29T21:13:21.828Z,62.58
2023-01-29T21:15:53.580Z,62.71
2023-01-29T21:18:26.379Z,63.45
2023-01-29T21:20:58.106Z,63.16
2023-01-29T21:23:29.761Z,63.12
2023-01-29T21:26:03.511Z,63.11
2023-01-29T21:28:35.251Z,63.11
2023-01-29T21:31:14.467Z,63.08
2023-01-29T21:33:46.245Z,63.47
2023-01-29T21:36:18.017Z,63.72
2023-01-29T21:38:49.731Z,63.60
2023-01-29T21:41:41.370Z,63.60
2023-01-29T21:44:12.976Z,63.54
2023-01-29T21:46:44.708Z,63.43
2023-01-29T21:49:16.440Z,63.42
2023-01-29T21:51:48.099Z,63.42
2023-01-29T21:54:20.151Z,63.48
2023-01-29T21:56:54.798Z,63.76
2023-01-29T21:59:26.481Z,63.95
2023-01-29T22:01:59.136Z,63.91
2023-01-29T22:04:30.852Z,64.07
2023-01-29T22:07:02.619Z,63.83
2023-01-29T22:09:34.393Z,64.05
2023-01-29T22:12:07.513Z,64.02
2023-01-29T22:14:39.229Z,64.16
2023-01-29T22:17:10.978Z,63.89
2023-01-29T22:19:43.501Z,64.20
2023-01-29T22:22:16.681Z,64.18
2023-01-29T22:24:48.828Z,64.32
2023-01-29T22:27:20.606Z,64.24
2023-01-29T22:29:52.339Z,64.52
2023-01-29T22:32:24.119Z,64.36
2023-01-29T22:34:55.869Z,64.12
2023-01-29T22:37:27.850Z,64.07
2023-01-29T22:39:59.539Z,64.01
2023-01-29T22:42:31.233Z,64.10
2023-01-29T22:45:03.065Z,64.32
2023-01-29T22:47:34.955Z,64.39
2023-01-29T22:50:07.437Z,64.32
2023-01-29T22:52:39.381Z,64.57
2023-01-29T22:55:13.028Z,64.43
2023-01-29T22:57:52.962Z,65.00
2023-01-29T23:00:24.949Z,64.78
2023-01-29T23:02:56.589Z,64.74
2023-01-29T23:05:28.222Z,64.85
2023-01-29T23:07:59.903Z,64.92
2023-01-29T23:10:31.527Z,64.88
2023-01-29T23:13:03.239Z,65.03
2023-01-29T23:15:36.067Z,64.99
2023-01-29T23:18:08.646Z,65.18
2023-01-29T23:20:40.288Z,65.25
2023-01-29T23:23:11.989Z,65.05
2023-01-29T23:26:02.156Z,64.96
2023-01-29T23:28:33.855Z,65.46
2023-01-29T23:31:08.220Z,65.70
2023-01-29T23:33:39.997Z,65.36
2023-01-29T23:36:11.802Z,65.78
2023-01-29T23:38:43.536Z,65.70
2023-01-29T23:41:15.247Z,65.99
2023-01-29T23:43:47.191Z,65.46
2023-01-29T23:46:21.236Z,65.71
2023-01-29T23:48:53.049Z,65.91
2023-01-29T23:51:24.691Z,65.66
2023-01-29T23:53:56.437Z,65.57
2023-01-29T23:56:28.068Z,65.85
2023-01-29T23:58:59.691Z,65.63
